Time;durP1;ratioP1;P1;durP2;ratioP2;P2;SDS_P1;SDS_P2;PMS_P1;PMS_P2;Temp;Humidity;BMP_temperature;BMP_pressure;BME280_temperature;BME280_humidity;BME280_pressure;Samples;Min_cycle;Max_cycle;Signal;HPM_P1;HPM_P2
2023/08/05 00:00:38;;;;;;;3.63;3.33;;;;;;;14.49;100.00;100052.66;5023750;28;20339;-71
2023/08/05 00:03:03;;;;;;;5.53;3.60;;;;;;;14.48;100.00;100058.75;5035900;28;20295;-73
2023/08/05 00:05:28;;;;;;;6.27;3.57;;;;;;;14.44;100.00;100067.69;5025988;28;20185;-69
2023/08/05 00:07:54;;;;;;;5.60;3.63;;;;;;;14.42;100.00;100062.59;5024779;28;20545;-68
2023/08/05 00:10:19;;;;;;;6.33;3.70;;;;;;;14.44;100.00;100060.75;5022876;28;20220;-69
2023/08/05 00:12:44;;;;;;;3.50;3.10;;;;;;;14.34;100.00;100068.34;5032481;28;20224;-71
2023/08/05 00:15:10;;;;;;;5.10;3.43;;;;;;;14.33;100.00;100068.44;5030486;28;20307;-72
2023/08/05 00:17:35;;;;;;;3.90;3.50;;;;;;;14.35;100.00;100070.00;5025564;28;20741;-72
2023/08/05 00:20:01;;;;;;;4.03;3.37;;;;;;;14.31;100.00;100075.47;5024907;28;20198;-69
2023/08/05 00:22:26;;;;;;;4.60;3.30;;;;;;;14.35;100.00;100077.75;5026265;28;20316;-69
2023/08/05 00:24:51;;;;;;;4.00;3.60;;;;;;;14.28;100.00;100086.88;5028295;28;20189;-69
2023/08/05 00:27:16;;;;;;;5.43;3.53;;;;;;;14.30;100.00;100081.59;5029122;28;20273;-69
2023/08/05 00:29:42;;;;;;;4.63;3.23;;;;;;;14.29;100.00;100079.94;5028264;28;20186;-69
2023/08/05 00:32:07;;;;;;;4.00;3.57;;;;;;;14.30;100.00;100079.00;5013999;28;20304;-69
2023/08/05 00:34:34;;;;;;;4.23;3.30;;;;;;;14.26;100.00;100080.16;5026524;28;20236;-68
2023/08/05 00:36:59;;;;;;;5.27;3.50;;;;;;;14.11;100.00;100071.72;5020163;28;20181;-68
2023/08/05 00:39:25;;;;;;;3.60;3.30;;;;;;;14.10;100.00;100077.81;5016503;28;20190;-67
2023/08/05 00:41:50;;;;;;;3.70;3.40;;;;;;;14.07;100.00;100071.09;5023819;28;20309;-68
2023/08/05 00:44:15;;;;;;;3.93;3.30;;;;;;;14.04;100.00;100071.28;5032114;28;20213;-68
2023/08/05 00:46:41;;;;;;;5.50;3.50;;;;;;;14.07;100.00;100068.50;5034143;28;20194;-68
2023/08/05 00:49:07;;;;;;;3.97;3.47;;;;;;;14.08;100.00;100067.59;5034396;28;20208;-68
2023/08/05 00:51:32;;;;;;;5.37;3.83;;;;;;;13.98;100.00;100076.91;5025957;28;20300;-68
2023/08/05 00:53:57;;;;;;;4.70;3.43;;;;;;;13.94;100.00;100081.47;5037234;28;20649;-68
2023/08/05 00:56:23;;;;;;;4.73;3.57;;;;;;;13.87;100.00;100083.63;5034194;28;20186;-68
2023/08/05 00:58:48;;;;;;;4.00;2.90;;;;;;;13.87;100.00;100082.81;5034069;28;20175;-69
2023/08/05 01:01:13;;;;;;;4.37;3.67;;;;;;;13.85;100.00;100079.50;5024954;28;20582;-68
2023/08/05 01:03:39;;;;;;;3.63;3.30;;;;;;;13.79;100.00;100083.34;5033565;28;20259;-67
2023/08/05 01:06:05;;;;;;;4.17;3.77;;;;;;;13.77;100.00;100081.78;5033674;28;20296;-70
2023/08/05 01:08:31;;;;;;;3.77;3.43;;;;;;;13.79;100.00;100085.09;5034084;28;20265;-69
2023/08/05 01:10:59;;;;;;;4.13;3.73;;;;;;;13.72;100.00;100075.19;5025547;28;20233;-69
2023/08/05 01:13:24;;;;;;;5.80;3.50;;;;;;;13.63;100.00;100073.22;5041864;28;20209;-69
2023/08/05 01:15:49;;;;;;;5.10;3.80;;;;;;;13.60;100.00;100072.63;5033290;28;20265;-69
2023/08/05 01:18:17;;;;;;;5.83;3.97;;;;;;;13.54;100.00;100079.84;5030678;28;20201;-69
2023/08/05 01:20:52;;;;;;;5.63;3.70;;;;;;;13.48;100.00;100082.00;5028678;28;20236;-69
2023/08/05 01:23:19;;;;;;;5.57;4.03;;;;;;;13.44;100.00;100063.28;5042187;28;20204;-69
2023/08/05 01:25:45;;;;;;;4.50;4.10;;;;;;;13.48;100.00;100075.09;5033132;28;20182;-68
2023/08/05 01:28:11;;;;;;;4.00;3.70;;;;;;;13.41;100.00;100068.69;5032039;28;20182;-68
2023/08/05 01:30:37;;;;;;;6.30;3.57;;;;;;;13.36;100.00;100063.78;5027899;28;20256;-68
2023/08/05 01:33:02;;;;;;;4.10;3.70;;;;;;;13.29;100.00;100061.72;5036580;28;20610;-68
2023/08/05 01:35:28;;;;;;;4.83;4.00;;;;;;;13.20;100.00;100061.38;5033281;28;20182;-69
2023/08/05 01:37:53;;;;;;;6.43;4.13;;;;;;;13.19;100.00;100058.91;5033231;28;20185;-68
2023/08/05 01:40:18;;;;;;;6.43;4.07;;;;;;;13.13;100.00;100065.28;5018587;28;20196;-68
2023/08/05 01:42:43;;;;;;;4.13;3.73;;;;;;;13.17;100.00;100058.19;5041978;28;20169;-68
2023/08/05 01:45:09;;;;;;;4.30;3.27;;;;;;;13.20;100.00;100058.81;5033107;28;20175;-68
2023/08/05 01:47:34;;;;;;;4.07;3.77;;;;;;;13.20;100.00;100058.81;5032862;28;20279;-69
2023/08/05 01:49:59;;;;;;;3.93;3.53;;;;;;;13.17;100.00;100059.03;5033218;28;20178;-68
2023/08/05 01:52:25;;;;;;;4.37;3.67;;;;;;;13.14;100.00;100061.78;5021397;28;20299;-68
2023/08/05 01:54:50;;;;;;;6.23;3.93;;;;;;;13.17;100.00;100053.00;5032444;28;20194;-68
2023/08/05 01:57:15;;;;;;;6.93;4.40;;;;;;;13.16;100.00;100053.94;5032928;28;20214;-69
2023/08/05 01:59:40;;;;;;;4.97;3.77;;;;;;;13.07;100.00;100053.63;5033317;28;20202;-67
2023/08/05 02:02:06;;;;;;;6.00;4.33;;;;;;;13.06;100.00;100059.72;5023413;28;20233;-68
2023/08/05 02:04:31;;;;;;;4.87;4.30;;;;;;;13.00;100.00;100064.44;5032855;28;20178;-68
2023/08/05 02:06:56;;;;;;;5.50;4.83;;;;;;;12.93;100.00;100055.47;5032828;28;20260;-68
2023/08/05 02:09:22;;;;;;;5.73;4.60;;;;;;;13.00;100.00;100059.28;5032905;28;20174;-68
2023/08/05 02:11:47;;;;;;;6.97;4.50;;;;;;;13.03;100.00;100066.84;5033657;28;20252;-68
2023/08/05 02:14:12;;;;;;;6.77;4.33;;;;;;;13.07;100.00;100069.13;5032378;28;20224;-69
2023/08/05 02:16:37;;;;;;;8.13;5.10;;;;;;;13.03;100.00;100070.25;5031245;28;20245;-69
2023/08/05 02:19:03;;;;;;;7.33;4.93;;;;;;;13.07;100.00;100063.13;5032897;28;20180;-68
2023/08/05 02:21:29;;;;;;;8.53;5.23;;;;;;;13.05;100.00;100057.25;5033104;28;20390;-68
2023/08/05 02:23:54;;;;;;;9.87;4.93;;;;;;;13.13;100.00;100049.00;5036623;28;20209;-68
2023/08/05 02:26:20;;;;;;;7.13;4.87;;;;;;;13.22;100.00;100056.13;5031928;28;20192;-68
2023/08/05 02:28:46;;;;;;;4.97;4.47;;;;;;;13.22;100.00;100051.78;5031368;28;20584;-69
2023/08/05 02:31:12;;;;;;;5.90;4.80;;;;;;;13.03;100.00;100053.94;5030711;28;20228;-69
2023/08/05 02:33:37;;;;;;;6.83;5.23;;;;;;;13.16;100.00;100048.78;5038113;28;20260;-69
2023/08/05 02:36:03;;;;;;;5.63;4.87;;;;;;;13.15;100.00;100045.38;5031820;28;20270;-68
2023/08/05 02:38:29;;;;;;;7.77;4.83;;;;;;;13.15;100.00;100036.81;5031167;28;20193;-69
2023/08/05 02:40:55;;;;;;;5.77;4.80;;;;;;;13.10;100.00;100037.09;5023641;28;20235;-68
2023/08/05 02:43:20;;;;;;;8.27;4.77;;;;;;;13.09;100.00;100038.03;5040773;28;20182;-69
2023/08/05 02:45:57;;;;;;;6.53;4.70;;;;;;;13.03;100.00;100028.91;5030293;28;20541;-68
2023/08/05 02:48:23;;;;;;;7.73;4.73;;;;;;;13.01;100.00;100029.94;5032368;28;20606;-69
2023/08/05 02:50:53;;;;;;;5.13;4.47;;;;;;;13.00;100.00;100025.72;5020106;28;20292;-68
2023/08/05 02:53:19;;;;;;;8.53;5.33;;;;;;;12.99;100.00;100024.09;5031367;28;20186;-69
2023/08/05 02:55:44;;;;;;;7.97;4.80;;;;;;;12.97;100.00;100023.34;5031051;28;20184;-69
2023/08/05 02:58:10;;;;;;;7.27;5.83;;;;;;;12.92;100.00;100026.22;5032351;28;20178;-69
2023/08/05 03:00:35;;;;;;;6.17;5.57;;;;;;;12.87;100.00;100023.13;5017648;28;20275;-69
2023/08/05 03:03:01;;;;;;;8.23;5.50;;;;;;;12.85;100.00;100023.22;5043223;28;20610;-69
2023/08/05 03:05:26;;;;;;;6.90;5.30;;;;;;;12.81;100.00;100024.34;5031285;28;20665;-69
2023/08/05 03:07:52;;;;;;;7.60;5.23;;;;;;;12.78;100.00;100021.97;5029607;28;20182;-68
2023/08/05 03:10:17;;;;;;;6.87;5.50;;;;;;;12.78;100.00;100021.16;5023307;28;20700;-69
2023/08/05 03:12:42;;;;;;;5.43;4.93;;;;;;;12.79;100.00;100020.19;5045168;28;20233;-70
2023/08/05 03:15:08;;;;;;;6.80;5.90;;;;;;;12.84;100.00;100013.00;5021546;28;20232;-69
2023/08/05 03:17:34;;;;;;;9.17;6.20;;;;;;;12.83;100.00;100006.19;5045929;28;20177;-68
2023/08/05 03:20:03;;;;;;;8.10;6.90;;;;;;;12.73;100.00;100008.53;5031364;28;20182;-69
2023/08/05 03:22:28;;;;;;;6.43;5.77;;;;;;;12.68;100.00;100013.19;5000859;28;20218;-69
2023/08/05 03:24:53;;;;;;;7.77;5.80;;;;;;;12.63;100.00;100010.03;5027715;28;20513;-69
2023/08/05 03:27:19;;;;;;;6.30;5.70;;;;;;;12.58;100.00;100000.84;5031789;28;20239;-69
2023/08/05 03:29:45;;;;;;;9.80;5.77;;;;;;;12.65;100.00;99997.88;5018142;28;20199;-69
2023/08/05 03:32:11;;;;;;;8.93;6.13;;;;;;;12.69;100.00;100009.66;5033110;28;20582;-69
2023/08/05 03:34:36;;;;;;;10.23;5.73;;;;;;;12.63;100.00;100007.47;5030859;28;20178;-69
2023/08/05 03:37:01;;;;;;;8.60;5.53;;;;;;;12.60;100.00;100011.06;5031548;28;20185;-69
2023/08/05 03:39:26;;;;;;;6.60;5.60;;;;;;;12.56;100.00;100013.03;5031192;28;20189;-70
2023/08/05 03:41:52;;;;;;;9.80;6.47;;;;;;;12.48;100.00;100014.44;5034995;28;20225;-68
2023/08/05 03:44:17;;;;;;;7.03;5.67;;;;;;;12.40;100.00;100018.34;5029677;28;20182;-68
2023/08/05 03:46:45;;;;;;;6.87;6.17;;;;;;;12.38;100.00;100019.38;5030152;28;20198;-68
2023/08/05 03:49:10;;;;;;;6.77;6.07;;;;;;;12.33;100.00;100031.72;5031213;28;20198;-68
2023/08/05 03:51:35;;;;;;;9.30;6.47;;;;;;;12.35;100.00;100038.44;5032593;28;20225;-68
2023/08/05 03:54:00;;;;;;;6.67;6.00;;;;;;;12.41;100.00;100045.78;5033858;28;20209;-68
2023/08/05 03:56:27;;;;;;;7.73;6.27;;;;;;;12.45;100.00;100043.03;5013686;28;20595;-69
2023/08/05 03:58:56;;;;;;;6.73;6.10;;;;;;;12.36;100.00;100045.25;5031206;28;20213;-69
2023/08/05 04:01:22;;;;;;;6.83;6.20;;;;;;;12.39;100.00;100039.91;5022948;28;20623;-69
2023/08/05 04:03:51;;;;;;;9.63;7.67;;;;;;;12.34;100.00;100051.44;5035694;28;20178;-68
2023/08/05 04:06:16;;;;;;;7.87;7.07;;;;;;;12.33;100.00;100055.78;5030761;28;20541;-69
2023/08/05 04:08:42;;;;;;;10.27;6.90;;;;;;;12.19;100.00;100053.22;5030763;28;20181;-69
2023/08/05 04:11:08;;;;;;;8.23;6.50;;;;;;;12.19;100.00;100058.38;5029432;28;20589;-69
2023/08/05 04:13:35;;;;;;;8.50;6.90;;;;;;;12.20;100.00;100067.78;5037962;28;20177;-69
2023/08/05 04:16:03;;;;;;;7.47;6.47;;;;;;;12.27;100.00;100061.31;5030340;28;20240;-68
2023/08/05 04:18:30;;;;;;;7.53;6.83;;;;;;;12.39;100.00;100072.59;5030504;28;20585;-69
2023/08/05 04:20:57;;;;;;;8.70;7.43;;;;;;;12.46;100.00;100073.06;5026680;28;20351;-69
2023/08/05 04:23:24;;;;;;;9.07;7.60;;;;;;;12.51;100.00;100079.56;5033611;28;20197;-69
2023/08/05 04:25:49;;;;;;;8.97;7.40;;;;;;;12.57;100.00;100084.34;5034316;28;20182;-69
2023/08/05 04:28:14;;;;;;;8.73;7.27;;;;;;;12.58;100.00;100078.25;5034742;28;20663;-69
2023/08/05 04:30:40;;;;;;;10.73;8.43;;;;;;;12.62;100.00;100078.91;5029816;28;20225;-70
2023/08/05 04:33:06;;;;;;;11.53;7.30;;;;;;;12.57;100.00;100074.03;5044483;28;20201;-69
2023/08/05 04:35:31;;;;;;;11.10;8.37;;;;;;;12.63;100.00;100090.88;5034139;28;20186;-69
2023/08/05 04:37:57;;;;;;;10.50;7.57;;;;;;;12.62;100.00;100096.97;5033278;28;20174;-69
2023/08/05 04:40:22;;;;;;;11.67;8.37;;;;;;;12.66;100.00;100095.03;5027240;28;20226;-70
2023/08/05 04:42:47;;;;;;;9.30;8.07;;;;;;;12.78;100.00;100085.69;5046716;28;20174;-69
2023/08/05 04:45:13;;;;;;;10.13;7.70;;;;;;;12.86;100.00;100083.41;5034190;28;20680;-69
2023/08/05 04:47:39;;;;;;;8.43;7.53;;;;;;;12.96;100.00;100084.50;5033966;28;20252;-69
2023/08/05 04:50:04;;;;;;;9.90;7.37;;;;;;;13.05;100.00;100085.66;5010785;28;20190;-69
2023/08/05 04:52:30;;;;;;;8.43;6.77;;;;;;;13.15;100.00;100085.88;5040799;28;20197;-67
2023/08/05 04:54:55;;;;;;;7.70;6.93;;;;;;;13.22;100.00;100084.53;5033951;28;20182;-68
2023/08/05 04:57:20;;;;;;;11.13;7.80;;;;;;;13.35;100.00;100080.22;5034291;28;20219;-68
2023/08/05 04:59:47;;;;;;;10.53;8.47;;;;;;;13.35;100.00;100079.41;5034119;28;20185;-68
2023/08/05 05:02:12;;;;;;;11.53;8.93;;;;;;;13.50;100.00;100067.22;5038964;28;20228;-68
2023/08/05 05:04:38;;;;;;;12.13;10.10;;;;;;;13.59;100.00;100079.53;5032270;28;20174;-68
2023/08/05 05:07:03;;;;;;;14.13;11.13;;;;;;;13.67;100.00;100085.00;5034063;28;20178;-68
2023/08/05 05:09:28;;;;;;;12.17;10.67;;;;;;;13.70;100.00;100089.13;5034152;28;20231;-68
2023/08/05 05:11:54;;;;;;;15.67;10.60;;;;;;;13.79;100.00;100095.44;5037506;28;20278;-68
2023/08/05 05:14:20;;;;;;;13.63;11.00;;;;;;;13.93;100.00;100097.91;5034630;28;20182;-69
2023/08/05 05:16:45;;;;;;;12.23;10.40;;;;;;;13.83;100.00;100095.13;5033794;28;20372;-68
2023/08/05 05:19:10;;;;;;;13.23;10.17;;;;;;;13.89;100.00;100091.28;5033984;28;20269;-68
2023/08/05 05:21:36;;;;;;;10.77;9.77;;;;;;;14.06;100.00;100077.19;5035300;28;20665;-68
2023/08/05 05:24:01;;;;;;;11.97;10.17;;;;;;;14.25;100.00;100076.75;5036782;28;20193;-68
2023/08/05 05:26:26;;;;;;;11.10;10.00;;;;;;;14.29;100.00;100072.16;5033658;28;20182;-69
2023/08/05 05:28:52;;;;;;;10.77;9.67;;;;;;;14.48;100.00;100072.50;5033807;28;20593;-69
2023/08/05 05:31:17;;;;;;;12.70;9.43;;;;;;;14.65;100.00;100071.34;5021931;28;20237;-66
2023/08/05 05:33:47;;;;;;;11.93;10.70;;;;;;;14.68;100.00;100063.34;5025659;28;20560;-66
2023/08/05 05:36:12;;;;;;;13.90;12.50;;;;;;;14.80;100.00;100071.19;5033090;28;20181;-66
2023/08/05 05:38:37;;;;;;;15.13;13.63;;;;;;;14.76;100.00;100070.56;5032045;28;20493;-65
2023/08/05 05:41:03;;;;;;;15.07;13.10;;;;;;;14.77;100.00;100073.97;5022166;28;20637;-66
2023/08/05 05:43:28;;;;;;;15.77;12.07;;;;;;;14.92;100.00;100067.69;5032882;28;20178;-66
2023/08/05 05:45:53;;;;;;;13.00;11.70;;;;;;;15.13;100.00;100067.03;5032451;28;20240;-65
2023/08/05 05:48:19;;;;;;;12.73;11.30;;;;;;;15.27;100.00;100064.25;5033297;28;20205;-66
2023/08/05 05:50:44;;;;;;;12.83;11.33;;;;;;;15.38;100.00;100060.00;5027906;28;20716;-65
2023/08/05 05:53:13;;;;;;;12.93;11.10;;;;;;;15.36;100.00;100061.91;5043075;28;20198;-66
2023/08/05 05:55:41;;;;;;;14.13;11.13;;;;;;;15.44;100.00;100049.19;5032757;28;20548;-67
2023/08/05 05:58:07;;;;;;;12.67;11.43;;;;;;;15.52;100.00;100046.00;5031983;28;20743;-66
2023/08/05 06:00:32;;;;;;;13.07;11.07;;;;;;;15.47;100.00;100052.38;5025903;28;20214;-66
2023/08/05 06:02:58;;;;;;;13.77;11.43;;;;;;;15.55;100.00;100051.78;5043942;28;20228;-66
2023/08/05 06:05:23;;;;;;;12.77;11.57;;;;;;;15.72;100.00;100041.91;5031858;28;20183;-66
2023/08/05 06:07:48;;;;;;;12.23;11.03;;;;;;;15.94;100.00;100044.50;5033313;28;20190;-66
2023/08/05 06:10:14;;;;;;;12.37;10.93;;;;;;;15.89;100.00;100038.84;5024076;28;20186;-66
2023/08/05 06:12:40;;;;;;;10.97;9.80;;;;;;;16.09;100.00;100029.50;5046120;28;20210;-66
2023/08/05 06:15:09;;;;;;;11.23;10.13;;;;;;;16.16;100.00;100029.81;5026699;28;20728;-66
2023/08/05 06:17:34;;;;;;;11.60;10.00;;;;;;;16.18;100.00;100020.16;5037675;28;20171;-66
2023/08/05 06:20:00;;;;;;;10.90;9.80;;;;;;;16.12;100.00;100025.84;5031805;28;20189;-66
2023/08/05 06:22:25;;;;;;;10.43;9.43;;;;;;;16.35;100.00;100024.00;5037873;28;20245;-66
2023/08/05 06:24:51;;;;;;;10.10;9.10;;;;;;;16.35;100.00;100020.56;5020323;28;20278;-66
2023/08/05 06:27:16;;;;;;;11.57;8.60;;;;;;;16.64;100.00;100026.03;5031154;28;20259;-66
2023/08/05 06:29:42;;;;;;;9.53;8.40;;;;;;;16.98;100.00;100030.25;5032409;28;20560;-66
2023/08/05 06:32:07;;;;;;;9.97;8.30;;;;;;;16.97;100.00;100026.84;5022933;28;20299;-66
2023/08/05 06:34:32;;;;;;;10.03;9.03;;;;;;;17.18;100.00;100028.59;5031882;28;20594;-66
2023/08/05 06:36:58;;;;;;;9.20;8.03;;;;;;;17.32;100.00;100030.88;5032656;28;20226;-65
2023/08/05 06:39:23;;;;;;;8.47;7.67;;;;;;;17.34;100.00;100023.78;5032263;28;20186;-66
2023/08/05 06:41:48;;;;;;;10.03;8.27;;;;;;;17.67;100.00;100021.03;5030071;28;20353;-66
2023/08/05 06:44:14;;;;;;;8.87;7.97;;;;;;;17.93;100.00;100023.16;5031599;28;20193;-66
2023/08/05 06:46:39;;;;;;;8.73;7.47;;;;;;;18.49;100.00;100008.72;5030644;28;20166;-66
2023/08/05 06:49:05;;;;;;;7.83;7.00;;;;;;;19.40;100.00;99995.28;5031807;28;20568;-66
2023/08/05 06:51:32;;;;;;;11.43;5.87;;;;;;;21.04;100.00;99995.22;5033054;28;20310;-66
2023/08/05 06:53:57;;;;;;;6.23;5.63;;;;;;;21.64;100.00;100009.25;5035732;28;20190;-66
2023/08/05 06:56:22;;;;;;;5.47;4.90;;;;;;;22.60;100.00;100016.81;5031649;28;20189;-66
2023/08/05 06:58:48;;;;;;;5.90;5.23;;;;;;;23.58;100.00;100009.72;5030485;28;20637;-66
2023/08/05 07:01:15;;;;;;;6.57;4.82;;;;;;;24.86;91.01;100007.56;5020343;28;20261;-66
2023/08/05 07:03:42;;;;;;;6.20;4.90;;;;;;;25.13;88.55;100006.13;5037338;28;20240;-67
2023/08/05 07:06:07;;;;;;;7.47;4.82;;;;;;;25.73;85.65;100004.28;5031581;28;20184;-65
2023/08/05 07:08:32;;;;;;;6.00;5.05;;;;;;;26.10;84.77;100006.94;5031599;28;20562;-65
2023/08/05 07:10:58;;;;;;;6.38;4.22;;;;;;;26.93;72.53;100011.69;5028703;28;20243;-66
2023/08/05 07:13:27;;;;;;;5.20;3.80;;;;;;;27.05;67.98;100009.31;5038929;28;20175;-66
2023/08/05 07:16:02;;;;;;;5.70;4.25;;;;;;;27.23;70.61;100000.88;5027079;28;20770;-67
2023/08/05 07:18:28;;;;;;;5.13;3.60;;;;;;;26.50;76.05;99998.56;5029436;28;20186;-66
2023/08/05 07:20:53;;;;;;;5.43;3.63;;;;;;;26.43;76.70;99998.50;5027981;28;20654;-67
2023/08/05 07:23:19;;;;;;;6.30;3.70;;;;;;;27.46;65.09;99994.50;5037806;28;20192;-66
2023/08/05 07:25:44;;;;;;;5.10;3.47;;;;;;;27.50;62.98;99993.91;5031255;28;20174;-67
2023/08/05 07:28:09;;;;;;;3.97;3.10;;;;;;;26.79;65.80;100000.19;5031438;28;20201;-67
2023/08/05 07:30:34;;;;;;;4.28;3.40;;;;;;;23.66;90.40;99999.19;5009369;28;20224;-66
2023/08/05 07:33:00;;;;;;;5.18;3.53;;;;;;;24.41;89.29;99994.28;5039342;28;20205;-65
2023/08/05 07:35:28;;;;;;;4.28;3.50;;;;;;;25.06;86.34;99987.63;5031121;28;20190;-65
2023/08/05 07:37:55;;;;;;;3.88;3.45;;;;;;;24.13;93.04;99992.22;5031199;28;20178;-66
2023/08/05 07:40:21;;;;;;;3.88;3.47;;;;;;;25.04;85.40;99980.91;5026295;28;20704;-69
2023/08/05 07:42:48;;;;;;;4.70;3.85;;;;;;;27.38;70.65;99984.91;5041573;28;20182;-68
2023/08/05 07:45:16;;;;;;;3.70;2.83;;;;;;;28.69;57.57;99977.63;5030520;28;20186;-68
2023/08/05 07:47:43;;;;;;;5.00;2.80;;;;;;;30.74;47.68;99980.38;5028652;28;20198;-68
2023/08/05 07:50:10;;;;;;;3.75;3.08;;;;;;;32.21;40.80;99989.38;5020671;28;20181;-68
2023/08/05 07:52:36;;;;;;;5.28;3.22;;;;;;;33.61;36.58;99988.59;5040760;28;20293;-69
2023/08/05 07:55:01;;;;;;;6.57;3.15;;;;;;;33.38;35.91;99989.50;5034512;28;20185;-69
2023/08/05 07:57:26;;;;;;;6.70;2.70;;;;;;;33.69;36.02;99980.22;5035213;28;20264;-69
2023/08/05 07:59:52;;;;;;;3.53;2.70;;;;;;;33.93;37.68;99986.25;5033649;28;20281;-70
2023/08/05 08:02:17;;;;;;;4.38;2.70;;;;;;;31.92;42.94;99987.34;5040449;28;20232;-69
2023/08/05 08:04:44;;;;;;;3.58;3.00;;;;;;;31.84;40.18;99982.34;5034866;28;20282;-68
2023/08/05 08:07:10;;;;;;;3.05;2.50;;;;;;;30.73;43.79;99980.59;5035134;28;20682;-68
2023/08/05 08:09:36;;;;;;;4.30;2.67;;;;;;;30.42;45.30;99979.63;5035196;28;20206;-69
2023/08/05 08:12:01;;;;;;;4.63;3.42;;;;;;;30.03;45.16;99971.78;5039069;28;20256;-68
2023/08/05 08:14:26;;;;;;;4.03;3.10;;;;;;;31.29;41.77;99970.00;5034872;28;20186;-68
2023/08/05 08:16:51;;;;;;;3.33;2.67;;;;;;;29.89;47.04;99971.06;5034803;28;20649;-68
2023/08/05 08:19:18;;;;;;;3.78;2.95;;;;;;;29.10;53.32;99965.91;5035228;28;20273;-68
2023/08/05 08:21:45;;;;;;;4.50;3.10;;;;;;;28.89;55.57;99969.63;5037095;28;20323;-68
2023/08/05 08:24:10;;;;;;;6.50;3.67;;;;;;;28.30;63.03;99973.97;5036693;28;20186;-67
2023/08/05 08:26:35;;;;;;;4.20;3.13;;;;;;;28.94;60.44;99967.19;5034597;28;20269;-68
2023/08/05 08:29:01;;;;;;;3.45;3.15;;;;;;;30.31;49.51;99970.53;5033379;28;20178;-68
2023/08/05 08:31:30;;;;;;;6.10;3.55;;;;;;;30.16;49.20;99962.91;5026298;28;20229;-68
2023/08/05 08:33:56;;;;;;;4.22;2.45;;;;;;;30.73;47.57;99965.47;5033390;28;20189;-69
2023/08/05 08:36:21;;;;;;;5.13;2.67;;;;;;;32.07;40.97;99967.47;5034042;28;20561;-68
2023/08/05 08:38:46;;;;;;;5.07;2.47;;;;;;;31.85;42.68;99968.00;5034729;28;20197;-69
2023/08/05 08:41:12;;;;;;;5.18;3.00;;;;;;;33.38;38.49;99965.50;5033166;28;20614;-68
2023/08/05 08:43:37;;;;;;;3.30;2.58;;;;;;;32.41;39.90;99965.88;5040723;28;20201;-68
2023/08/05 08:46:05;;;;;;;4.18;2.42;;;;;;;33.61;35.90;99956.59;5034022;28;20190;-68
2023/08/05 08:48:33;;;;;;;2.95;2.05;;;;;;;32.49;37.23;99951.44;5034655;28;20206;-68
2023/08/05 08:50:59;;;;;;;2.17;1.55;;;;;;;33.01;36.32;99945.34;5031404;28;20225;-68
2023/08/05 08:53:26;;;;;;;4.70;2.53;;;;;;;33.46;35.34;99947.28;5042288;28;20215;-69
2023/08/05 08:55:51;;;;;;;3.13;2.20;;;;;;;32.95;36.81;99944.44;5033542;28;20201;-68
2023/08/05 08:58:17;;;;;;;3.10;2.38;;;;;;;32.82;37.23;99939.38;5034013;28;20193;-68
2023/08/05 09:00:42;;;;;;;3.03;1.58;;;;;;;33.30;34.21;99934.72;5028968;28;20584;-69
2023/08/05 09:03:09;;;;;;;1.77;1.50;;;;;;;32.59;34.23;99937.53;5044031;28;20556;-69
2023/08/05 09:05:44;;;;;;;2.22;2.03;;;;;;;34.53;33.08;99940.44;5011123;28;20179;-69
2023/08/05 09:08:09;;;;;;;2.15;1.60;;;;;;;36.26;30.76;99952.34;5026707;28;20193;-69
2023/08/05 09:10:36;;;;;;;2.90;1.55;;;;;;;34.15;31.95;99950.84;5027873;28;20256;-68
2023/08/05 09:13:01;;;;;;;2.13;1.50;;;;;;;33.74;34.58;99942.13;5040987;28;20206;-69
2023/08/05 09:15:35;;;;;;;5.93;1.67;;;;;;;33.71;33.78;99943.44;5033538;28;20279;-68
2023/08/05 09:18:03;;;;;;;1.88;1.45;;;;;;;32.47;36.31;99940.22;5032535;28;20179;-69
2023/08/05 09:20:31;;;;;;;3.40;1.55;;;;;;;30.77;40.00;99936.63;5014299;28;20236;-67
2023/08/05 09:23:02;;;;;;;2.88;1.90;;;;;;;29.39;44.84;99925.88;5045183;28;20637;-68
2023/08/05 09:25:31;;;;;;;2.03;1.80;;;;;;;28.06;55.81;99920.66;5033643;28;20633;-67
2023/08/05 09:27:57;;;;;;;4.20;1.80;;;;;;;28.48;51.24;99923.06;5033595;28;20213;-68
2023/08/05 09:30:24;;;;;;;2.85;1.92;;;;;;;29.02;45.96;99913.19;5026599;28;20289;-68
2023/08/05 09:32:49;;;;;;;2.28;1.80;;;;;;;29.79;46.77;99912.38;5045462;28;20198;-68
2023/08/05 09:35:16;;;;;;;2.60;1.95;;;;;;;30.48;43.62;99906.28;5033225;28;20181;-68
2023/08/05 09:37:45;;;;;;;3.25;1.80;;;;;;;28.26;46.98;99906.63;5032984;28;20177;-68
2023/08/05 09:40:21;;;;;;;2.60;1.55;;;;;;;29.66;43.09;99905.34;5023297;28;20182;-68
2023/08/05 09:42:51;;;;;;;4.32;1.80;;;;;;;28.98;45.97;99891.59;5044319;28;20268;-68
2023/08/05 09:45:18;;;;;;;2.85;1.58;;;;;;;31.27;42.33;99893.16;5033204;28;20178;-67
2023/08/05 09:47:47;;;;;;;3.30;1.75;;;;;;;31.62;40.50;99895.09;5032877;28;20584;-68
2023/08/05 09:50:13;;;;;;;1.60;1.50;;;;;;;29.22;44.01;99888.44;5024318;28;20189;-68
2023/08/05 09:52:39;;;;;;;3.15;1.58;;;;;;;29.03;49.29;99890.19;5030751;28;20633;-68
2023/08/05 09:55:14;;;;;;;2.22;1.60;;;;;;;27.68;54.21;99882.38;5032811;28;20601;-68
2023/08/05 09:57:41;;;;;;;2.13;1.70;;;;;;;27.84;52.50;99875.88;5031441;28;20182;-67
2023/08/05 10:00:10;;;;;;;2.20;1.50;;;;;;;29.93;46.91;99879.47;5023570;28;20324;-68
2023/08/05 10:02:39;;;;;;;3.47;1.40;;;;;;;30.94;38.92;99878.44;5046672;28;20186;-68
2023/08/05 10:05:05;;;;;;;3.55;1.70;;;;;;;33.51;34.71;99881.78;5032419;28;20189;-68
2023/08/05 10:07:30;;;;;;;2.50;1.60;;;;;;;31.50;36.45;99871.16;5032631;28;20197;-68
2023/08/05 10:09:57;;;;;;;2.88;1.42;;;;;;;31.32;37.40;99858.75;5032746;28;20312;-68
2023/08/05 10:12:32;;;;;;;1.48;1.20;;;;;;;31.10;36.17;99862.94;5037671;28;20662;-67
2023/08/05 10:14:59;;;;;;;2.08;1.40;;;;;;;32.21;34.68;99867.00;5030776;28;20267;-68
2023/08/05 10:17:25;;;;;;;3.65;1.52;;;;;;;29.50;41.18;99866.91;5032393;28;20182;-68
2023/08/05 10:19:51;;;;;;;2.15;1.20;;;;;;;31.36;35.64;99854.59;5032570;28;20192;-68
2023/08/05 10:22:24;;;;;;;2.78;1.35;;;;;;;31.41;35.40;99869.03;5021850;28;20225;-68
2023/08/05 10:24:51;;;;;;;1.75;1.30;;;;;;;32.57;36.67;99852.56;5032033;28;20213;-68
2023/08/05 10:27:16;;;;;;;3.45;1.33;;;;;;;34.15;31.69;99856.59;5032568;28;20186;-68
2023/08/05 10:29:52;;;;;;;2.53;1.40;;;;;;;33.09;32.76;99846.38;5032343;28;20240;-68
2023/08/05 10:32:28;;;;;;;1.17;1.00;;;;;;;32.95;33.44;99842.41;5036936;28;20250;-68
2023/08/05 10:35:30;;;;;;;2.92;1.25;;;;;;;34.90;30.02;99846.34;5031886;28;20315;-68
2023/08/05 10:38:16;;;;;;;1.33;1.17;;;;;;;33.60;30.51;99849.16;5031316;28;20187;-68
2023/08/05 10:40:45;;;;;;;1.30;1.20;;;;;;;35.97;28.85;99842.16;5027436;28;20708;-68
2023/08/05 10:43:24;;;;;;;1.15;0.70;;;;;;;37.20;26.42;99840.97;5042073;28;20216;-68
2023/08/05 10:45:49;;;;;;;1.20;0.95;;;;;;;34.14;29.59;99828.31;5030233;28;20185;-68
2023/08/05 10:48:16;;;;;;;3.20;1.20;;;;;;;33.71;31.45;99820.75;5032273;28;20692;-68
2023/08/05 10:50:42;;;;;;;2.00;1.23;;;;;;;30.67;35.31;99808.94;5026529;28;20312;-68
2023/08/05 10:53:10;;;;;;;1.48;1.30;;;;;;;29.89;38.60;99808.50;5042445;28;20297;-68
2023/08/05 10:55:46;;;;;;;2.97;1.25;;;;;;;28.98;41.09;99801.59;5028537;28;20200;-68
2023/08/05 10:58:12;;;;;;;2.20;1.33;;;;;;;28.01;39.03;99794.34;5022438;28;20534;-67
2023/08/05 11:00:45;;;;;;;1.30;1.20;;;;;;;26.44;49.25;99783.09;5016474;28;20228;-67
2023/08/05 11:03:49;;;;;;;2.60;1.33;;;;;;;26.18;61.88;99788.00;5041817;28;20186;-67
2023/08/05 11:06:20;;;;;;;1.52;1.30;;;;;;;25.80;61.95;99783.09;5031624;28;20173;-67
2023/08/05 11:08:46;;;;;;;3.97;1.73;;;;;;;25.68;64.13;99781.97;5031894;28;20190;-67
2023/08/05 11:11:13;;;;;;;2.33;1.52;;;;;;;25.24;73.79;99779.34;5030499;28;20236;-67
2023/08/05 11:13:41;;;;;;;1.45;1.30;;;;;;;24.94;82.81;99773.34;5037946;28;20182;-67
2023/08/05 11:16:14;;;;;;;3.03;1.77;;;;;;;25.01;75.70;99766.34;5029534;28;20244;-68
2023/08/05 11:18:41;;;;;;;2.60;1.48;;;;;;;24.33;79.75;99771.78;5037572;28;20584;-68